createdAt,value
2017-12-11T10:32:50.432Z,16.88
2017-12-11T10:33:50.266Z,16.88
2017-12-11T10:34:50.258Z,16.88
2017-12-11T10:35:50.244Z,16.88
2017-12-11T10:36:50.236Z,16.88
2017-12-11T10:37:50.221Z,16.88
2017-12-11T10:38:50.224Z,22.50
2017-12-11T10:39:50.206Z,22.50
2017-12-11T10:40:50.197Z,22.50
2017-12-11T10:41:50.193Z,22.50
2017-12-11T10:42:50.191Z,22.50
2017-12-11T10:43:50.187Z,22.50
2017-12-11T10:44:50.184Z,22.50
2017-12-11T10:45:50.174Z,22.50
2017-12-11T10:46:50.165Z,22.50
2017-12-11T10:47:50.161Z,22.50
2017-12-11T10:48:50.151Z,22.50
2017-12-11T10:49:50.151Z,22.50
2017-12-11T10:50:50.152Z,22.50
2017-12-11T10:51:50.135Z,22.50
2017-12-11T10:52:50.116Z,22.50
2017-12-11T10:53:50.116Z,22.50
2017-12-11T10:54:50.128Z,22.50
2017-12-11T10:55:50.102Z,22.50
2017-12-11T10:56:50.105Z,22.50
2017-12-11T10:57:50.108Z,22.50
2017-12-11T10:58:50.111Z,22.50
2017-12-11T10:59:50.099Z,22.50
2017-12-11T11:00:50.081Z,22.50
2017-12-11T11:01:50.081Z,22.50
2017-12-11T11:02:50.073Z,22.50
2017-12-11T11:03:50.090Z,22.50
2017-12-11T11:04:50.088Z,22.50
2017-12-11T11:05:50.059Z,22.50
2017-12-11T11:06:50.072Z,22.50
2017-12-11T11:07:50.068Z,22.50
2017-12-11T11:08:50.050Z,22.50
2017-12-11T11:09:50.050Z,28.13
2017-12-11T11:10:50.042Z,28.13
2017-12-11T11:11:50.054Z,28.13
2017-12-11T11:12:50.051Z,28.13
2017-12-11T11:13:50.050Z,28.13
2017-12-11T11:14:50.038Z,28.13
2017-12-11T11:15:50.024Z,33.75
2017-12-11T11:16:50.032Z,33.75
2017-12-11T11:17:50.040Z,33.75
2017-12-11T11:18:50.022Z,33.75
2017-12-11T11:19:50.035Z,33.75
2017-12-11T11:20:50.026Z,33.75
2017-12-11T11:21:50.016Z,39.38
2017-12-11T11:22:50.027Z,39.38
2017-12-11T11:23:50.009Z,39.38
2017-12-11T11:24:50.007Z,39.38
2017-12-11T11:25:50.004Z,39.38
2017-12-11T11:26:50.012Z,33.75
2017-12-11T11:27:50.010Z,39.38
2017-12-11T11:28:50.014Z,39.38
2017-12-11T11:29:50.006Z,39.38
2017-12-11T11:30:50.004Z,39.38
2017-12-11T11:31:50.004Z,39.38
2017-12-11T11:32:50.001Z,39.38
2017-12-11T11:33:49.999Z,45.00
2017-12-11T11:34:49.999Z,45.00
2017-12-11T11:35:49.997Z,45.00
2017-12-11T11:36:50.001Z,45.00
2017-12-11T11:37:49.995Z,45.00
2017-12-11T11:38:49.996Z,45.00
2017-12-11T11:39:50.006Z,45.00
2017-12-11T11:40:50.005Z,45.00
2017-12-11T11:41:49.989Z,50.63
2017-12-11T11:42:49.998Z,45.00
2017-12-11T11:43:49.997Z,50.63
2017-12-11T11:44:49.996Z,50.63
2017-12-11T11:45:49.986Z,50.63
2017-12-11T11:46:49.991Z,50.63
2017-12-11T11:47:49.992Z,50.63
2017-12-11T11:48:49.988Z,50.63
2017-12-11T11:49:49.990Z,50.63
2017-12-11T11:50:49.987Z,50.63
2017-12-11T11:51:49.990Z,56.25
2017-12-11T11:52:49.994Z,56.25
2017-12-11T11:53:49.997Z,56.25
2017-12-11T11:54:49.995Z,61.88
2017-12-11T11:55:49.988Z,67.50
2017-12-11T11:56:49.987Z,61.88
2017-12-11T11:57:49.997Z,67.50
2017-12-11T11:58:49.992Z,67.50
2017-12-11T11:59:49.995Z,67.50
2017-12-11T12:00:49.990Z,67.50
2017-12-11T12:01:49.997Z,67.50
2017-12-11T12:02:49.993Z,67.50
2017-12-11T12:03:49.995Z,67.50
2017-12-11T12:04:49.992Z,67.50
2017-12-11T12:05:49.994Z,67.50
2017-12-11T12:06:49.998Z,67.50
2017-12-11T12:07:50.000Z,67.50
2017-12-11T12:08:50.005Z,67.50
2017-12-11T12:09:49.999Z,67.50
2017-12-11T12:10:50.006Z,67.50
2017-12-11T12:11:50.009Z,67.50
2017-12-11T12:12:49.996Z,67.50
2017-12-11T12:13:49.996Z,67.50
2017-12-11T12:14:49.998Z,67.50
2017-12-11T12:15:50.016Z,67.50
2017-12-11T12:16:49.995Z,67.50
2017-12-11T12:17:50.011Z,67.50
2017-12-11T12:18:50.012Z,67.50
2017-12-11T12:19:50.026Z,67.50
2017-12-11T12:20:50.010Z,67.50
2017-12-11T12:21:50.004Z,67.50
2017-12-11T12:22:50.030Z,67.50
2017-12-11T12:23:50.008Z,67.50
2017-12-11T12:24:50.032Z,73.13
2017-12-11T12:25:50.027Z,73.13
2017-12-11T12:26:50.036Z,73.13
2017-12-11T12:27:50.034Z,73.13
2017-12-11T12:28:50.041Z,73.13
2017-12-11T12:29:50.018Z,73.13
2017-12-11T12:30:50.029Z,73.13
2017-12-11T12:31:50.039Z,73.13
2017-12-11T12:32:50.036Z,73.13
2017-12-11T12:33:50.048Z,73.13
2017-12-11T12:34:50.040Z,78.75
2017-12-11T12:35:50.054Z,78.75
2017-12-11T12:36:50.061Z,78.75
2017-12-11T12:37:50.064Z,78.75
2017-12-11T12:38:50.052Z,78.75
2017-12-11T12:39:50.066Z,78.75
2017-12-11T12:40:50.064Z,78.75
2017-12-11T12:41:50.071Z,78.75
2017-12-11T12:42:50.061Z,78.75
2017-12-11T12:43:50.063Z,78.75
2017-12-11T12:44:50.066Z,78.75
2017-12-11T12:45:50.073Z,78.75
2017-12-11T12:46:50.089Z,78.75
2017-12-11T12:47:50.096Z,78.75
2017-12-11T12:48:50.092Z,78.75
2017-12-11T12:49:50.097Z,78.75
2017-12-11T12:50:50.100Z,78.75
2017-12-11T12:51:50.105Z,84.38
2017-12-11T12:52:50.109Z,84.38
2017-12-11T12:53:50.111Z,84.38
2017-12-11T12:54:50.120Z,84.38
2017-12-11T12:55:50.172Z,84.38
2017-12-11T12:56:50.117Z,84.38
2017-12-11T12:57:50.129Z,84.38
2017-12-11T12:58:50.132Z,84.38
2017-12-11T12:59:50.136Z,84.38
2017-12-11T13:00:50.142Z,84.38
2017-12-11T13:01:50.137Z,84.38
2017-12-11T13:02:50.145Z,84.38
2017-12-11T13:03:50.151Z,84.38
2017-12-11T13:04:50.151Z,84.38
2017-12-11T13:05:50.153Z,84.38
2017-12-11T13:06:50.158Z,84.38
2017-12-11T13:07:50.162Z,84.38
2017-12-11T13:08:50.167Z,84.38
2017-12-11T13:09:50.169Z,84.38
2017-12-11T13:10:50.178Z,84.38
2017-12-11T13:11:50.179Z,84.38
2017-12-11T13:12:50.187Z,84.38
2017-12-11T13:13:50.186Z,84.38
2017-12-11T13:14:50.195Z,84.38
2017-12-11T13:15:50.198Z,84.38
2017-12-11T13:16:50.197Z,84.38
2017-12-11T13:17:50.206Z,84.38
2017-12-11T13:18:50.206Z,90.00
2017-12-11T13:19:50.211Z,90.00
2017-12-11T13:20:50.211Z,90.00
2017-12-11T13:21:50.220Z,90.00
2017-12-11T13:22:50.226Z,90.00
2017-12-11T13:23:50.233Z,50.63
2017-12-11T13:24:50.228Z,90.00
2017-12-11T13:25:50.237Z,90.00
2017-12-11T13:26:50.241Z,90.00
2017-12-11T13:27:50.249Z,22.50
2017-12-11T13:28:50.255Z,22.50
2017-12-11T13:29:50.259Z,22.50
2017-12-11T13:30:50.259Z,16.88
2017-12-11T13:31:50.259Z,16.88
2017-12-11T13:32:50.268Z,16.88
2017-12-11T13:33:50.276Z,16.88
2017-12-11T13:34:50.276Z,16.88
2017-12-11T13:36:26.527Z,22.50
2017-12-11T13:36:50.259Z,28.13
2017-12-11T13:37:50.278Z,28.13
2017-12-11T13:38:50.951Z,95.63
2017-12-11T13:39:50.297Z,101.25
2017-12-11T13:40:50.301Z,95.63
2017-12-11T13:41:50.304Z,95.63
2017-12-11T13:42:50.306Z,95.63
2017-12-11T13:43:50.310Z,95.63
2017-12-11T13:44:50.314Z,95.63
2017-12-11T13:45:50.316Z,101.25
2017-12-11T13:46:50.319Z,101.25
2017-12-11T13:47:50.323Z,101.25
2017-12-11T13:48:50.328Z,101.25
2017-12-11T13:49:50.329Z,101.25
2017-12-11T13:50:50.334Z,101.25
2017-12-11T13:51:50.338Z,101.25
2017-12-11T13:52:50.342Z,101.25
2017-12-11T13:53:50.345Z,101.25
2017-12-11T13:54:50.352Z,101.25
2017-12-11T13:55:50.352Z,101.25
2017-12-11T13:56:50.510Z,101.25
2017-12-11T13:57:50.363Z,101.25
2017-12-11T13:58:50.367Z,101.25
2017-12-11T13:59:50.372Z,101.25
2017-12-11T14:00:50.379Z,28.13
2017-12-11T14:01:50.388Z,28.13
2017-12-11T14:02:50.386Z,39.38
2017-12-11T14:03:50.391Z,33.75
2017-12-11T14:04:50.397Z,106.88
2017-12-11T14:05:50.394Z,84.38
2017-12-11T14:06:50.403Z,78.75
2017-12-11T14:07:50.422Z,28.13
2017-12-11T14:08:50.411Z,28.13
2017-12-11T14:09:50.409Z,28.13
2017-12-11T14:10:50.418Z,28.13
2017-12-11T14:11:50.417Z,45.00
2017-12-11T14:12:50.427Z,39.38
2017-12-11T14:13:50.429Z,39.38
2017-12-11T14:14:50.432Z,101.25
2017-12-11T14:15:50.436Z,78.75
2017-12-11T14:16:50.440Z,28.13
2017-12-11T14:17:50.442Z,28.13
2017-12-11T14:18:50.445Z,33.75
2017-12-11T14:19:50.448Z,33.75
2017-12-11T14:20:50.451Z,39.38
2017-12-11T14:21:50.454Z,39.38
2017-12-11T14:22:50.451Z,39.38
2017-12-11T14:23:50.455Z,39.38
2017-12-11T14:24:50.462Z,39.38
2017-12-11T14:25:50.458Z,39.38
2017-12-11T14:26:50.466Z,33.75
2017-12-11T14:27:50.469Z,33.75
2017-12-11T14:28:50.471Z,61.88
2017-12-11T14:29:50.473Z,112.50
2017-12-11T14:30:50.476Z,90.00
2017-12-11T14:31:50.479Z,33.75
2017-12-11T14:32:50.484Z,106.88
2017-12-11T14:33:50.483Z,45.00
2017-12-11T14:34:50.485Z,39.38
2017-12-11T14:35:50.487Z,33.75
2017-12-11T14:36:50.490Z,33.75
2017-12-11T14:37:50.492Z,39.38
2017-12-11T14:38:50.545Z,33.75
2017-12-11T14:39:50.497Z,33.75
2017-12-11T14:40:50.500Z,112.50
2017-12-11T14:41:50.502Z,73.13
2017-12-11T14:42:50.505Z,45.00
2017-12-11T14:43:50.507Z,45.00
2017-12-11T14:44:50.511Z,56.25
2017-12-11T14:45:50.512Z,78.75
2017-12-11T14:46:50.515Z,50.63
2017-12-11T14:47:50.517Z,78.75
2017-12-11T14:48:50.520Z,50.63
2017-12-11T14:49:50.522Z,101.25
2017-12-11T14:50:50.525Z,112.50
2017-12-11T14:51:50.527Z,112.50
2017-12-11T14:52:50.531Z,95.63
2017-12-11T14:53:50.533Z,50.63
2017-12-11T14:54:50.536Z,112.50
2017-12-11T14:55:50.539Z,106.88
2017-12-11T14:56:50.543Z,101.25
2017-12-11T14:57:50.545Z,101.25
2017-12-11T14:58:50.548Z,101.25
2017-12-11T14:59:50.552Z,106.88
2017-12-11T15:00:50.555Z,106.88
2017-12-11T15:01:50.560Z,106.88
2017-12-11T15:02:50.568Z,39.38
2017-12-11T15:03:50.567Z,33.75
2017-12-11T15:04:50.572Z,33.75
2017-12-11T15:05:50.573Z,33.75
2017-12-11T15:06:50.578Z,33.75
2017-12-11T15:07:50.581Z,33.75
2017-12-11T15:08:50.585Z,33.75
2017-12-11T15:09:50.589Z,33.75
2017-12-11T15:10:50.592Z,28.13
2017-12-11T15:11:50.595Z,33.75
2017-12-11T15:12:50.599Z,33.75
2017-12-11T15:13:50.602Z,39.38
2017-12-11T15:14:50.604Z,61.88
2017-12-11T15:15:50.606Z,50.63
2017-12-11T15:16:50.610Z,39.38
2017-12-11T15:17:50.611Z,39.38
2017-12-11T15:18:50.615Z,45.00
2017-12-11T15:19:50.617Z,45.00
2017-12-11T15:20:50.620Z,45.00
2017-12-11T15:21:50.622Z,39.38
2017-12-11T15:22:50.624Z,45.00
2017-12-11T15:23:50.629Z,39.38
2017-12-11T15:24:50.629Z,39.38
2017-12-11T15:25:50.630Z,39.38
2017-12-11T15:26:50.634Z,39.38
2017-12-11T15:27:50.635Z,39.38
2017-12-11T15:28:50.639Z,39.38
2017-12-11T15:29:50.640Z,39.38
2017-12-11T15:30:50.640Z,50.63
2017-12-11T15:31:50.642Z,45.00
2017-12-11T15:32:50.644Z,50.63
2017-12-11T15:33:50.644Z,45.00
2017-12-11T15:34:50.646Z,50.63
2017-12-11T15:35:50.649Z,101.25
2017-12-11T15:36:50.650Z,45.00
2017-12-11T15:37:50.656Z,50.63
2017-12-11T15:38:50.651Z,95.63
2017-12-11T15:39:50.656Z,95.63
2017-12-11T15:40:50.654Z,90.00
2017-12-11T15:41:50.654Z,84.38
2017-12-11T15:42:50.655Z,78.75
2017-12-11T15:43:50.659Z,33.75
2017-12-11T15:44:50.660Z,22.50
2017-12-11T15:45:50.659Z,22.50
2017-12-11T15:46:50.660Z,28.13
2017-12-11T15:47:50.661Z,28.13
2017-12-11T15:48:50.663Z,28.13
2017-12-11T15:49:50.662Z,28.13
2017-12-11T15:50:50.664Z,28.13
2017-12-11T15:51:50.664Z,28.13
2017-12-11T15:52:50.665Z,28.13
2017-12-11T15:53:50.664Z,28.13
2017-12-11T15:54:50.669Z,33.75
2017-12-11T15:55:50.766Z,33.75
2017-12-11T15:56:50.672Z,28.13
2017-12-11T15:57:50.665Z,28.13
2017-12-11T15:58:50.666Z,33.75
2017-12-11T15:59:50.667Z,33.75
2017-12-11T16:00:50.668Z,33.75
2017-12-11T16:01:50.667Z,33.75
2017-12-11T16:02:50.669Z,33.75
2017-12-11T16:03:50.666Z,33.75
2017-12-11T16:04:50.668Z,39.38
2017-12-11T16:05:50.665Z,73.13
2017-12-11T16:06:50.666Z,67.50
2017-12-11T16:07:50.665Z,50.63
2017-12-11T16:08:50.666Z,45.00
2017-12-11T16:09:50.665Z,61.88
2017-12-11T16:10:50.665Z,39.38
2017-12-11T16:11:50.667Z,39.38
2017-12-11T16:12:50.666Z,45.00
2017-12-11T16:13:50.665Z,50.63
2017-12-11T16:14:50.661Z,50.63
2017-12-11T16:15:50.666Z,56.25
2017-12-11T16:16:50.666Z,73.13
2017-12-11T16:17:50.665Z,45.00
2017-12-11T16:18:50.666Z,56.25
2017-12-11T16:19:50.666Z,73.13
2017-12-11T16:20:50.666Z,78.75
2017-12-11T16:21:50.666Z,84.38
2017-12-11T16:22:50.667Z,84.38
2017-12-11T16:23:50.668Z,67.50
2017-12-11T16:24:50.668Z,39.38
2017-12-11T16:25:50.666Z,45.00
2017-12-11T16:26:50.667Z,73.13
2017-12-11T16:27:50.668Z,78.75
2017-12-11T16:28:50.767Z,78.75
2017-12-11T16:29:50.667Z,84.38
2017-12-11T16:30:50.667Z,84.38
2017-12-11T16:31:50.667Z,78.75
2017-12-11T16:32:50.668Z,84.38
2017-12-11T16:33:50.667Z,39.38
2017-12-11T16:34:50.667Z,39.38
2017-12-11T16:35:50.668Z,67.50
2017-12-11T16:36:50.668Z,84.38
2017-12-11T16:37:50.667Z,56.25
2017-12-11T16:38:50.668Z,39.38
2017-12-11T16:39:50.668Z,28.13
2017-12-11T16:40:50.669Z,22.50
2017-12-11T16:41:50.667Z,22.50
2017-12-11T16:42:50.666Z,28.13
2017-12-11T16:43:50.668Z,39.38
2017-12-11T16:44:50.668Z,45.00
2017-12-11T16:45:50.665Z,50.63
2017-12-11T16:46:50.666Z,56.25
2017-12-11T16:47:50.660Z,56.25
2017-12-11T16:48:50.666Z,50.63
2017-12-11T16:49:50.663Z,45.00
2017-12-11T16:50:50.670Z,28.13
2017-12-11T16:51:50.665Z,22.50
2017-12-11T16:52:50.663Z,22.50
2017-12-11T16:53:50.660Z,11.25
2017-12-11T16:54:50.658Z,11.25
2017-12-11T16:55:50.656Z,16.88
2017-12-11T16:56:50.657Z,22.50
2017-12-11T16:57:50.660Z,22.50
2017-12-11T16:58:50.955Z,16.88
2017-12-11T16:59:50.653Z,11.25
2017-12-11T17:00:50.657Z,5.63
2017-12-11T17:01:50.650Z,5.63
2017-12-11T17:02:50.649Z,5.63
2017-12-11T17:03:50.648Z,5.63
2017-12-11T17:04:50.649Z,11.25
2017-12-11T17:05:50.643Z,16.88
2017-12-11T17:06:50.643Z,16.88
2017-12-11T17:07:50.644Z,16.88
2017-12-11T17:08:50.638Z,22.50
2017-12-11T17:09:50.635Z,16.88
2017-12-11T17:10:50.634Z,11.25
2017-12-11T17:11:50.630Z,11.25
2017-12-11T17:12:50.630Z,11.25
2017-12-11T17:13:50.626Z,11.25
2017-12-11T17:14:50.625Z,11.25
2017-12-11T17:15:50.656Z,16.88
2017-12-11T17:16:50.621Z,16.88
2017-12-11T17:17:50.617Z,16.88
2017-12-11T17:18:50.610Z,16.88
2017-12-11T17:19:50.613Z,16.88
2017-12-11T17:20:50.615Z,16.88
2017-12-11T17:21:50.607Z,11.25
2017-12-11T17:22:50.604Z,11.25
2017-12-11T17:23:50.606Z,11.25
2017-12-11T17:24:50.600Z,11.25
2017-12-11T17:25:50.596Z,11.25
2017-12-11T17:26:50.592Z,11.25
2017-12-11T17:27:50.596Z,16.88
2017-12-11T17:28:50.588Z,16.88
2017-12-11T17:29:50.582Z,16.88
2017-12-11T17:30:50.579Z,11.25
2017-12-11T17:31:50.577Z,11.25
2017-12-11T17:32:50.584Z,11.25
2017-12-11T17:33:50.570Z,5.63
2017-12-11T17:34:50.568Z,5.63
2017-12-11T17:35:50.564Z,11.25
2017-12-11T17:36:50.560Z,11.25
2017-12-11T17:37:50.557Z,16.88
2017-12-11T17:38:50.553Z,16.88
2017-12-11T17:39:50.549Z,16.88
2017-12-11T17:40:50.546Z,11.25
2017-12-11T17:41:50.541Z,11.25
2017-12-11T17:42:50.538Z,11.25
2017-12-11T17:43:50.538Z,11.25
2017-12-11T17:44:50.535Z,16.88
2017-12-11T17:45:50.526Z,16.88
2017-12-11T17:46:50.524Z,11.25
2017-12-11T17:47:50.523Z,11.25
2017-12-11T17:48:50.515Z,11.25
2017-12-11T17:49:50.511Z,16.88
2017-12-11T17:50:50.507Z,16.88
2017-12-11T17:51:50.487Z,22.50
2017-12-11T17:52:50.484Z,22.50
2017-12-11T17:53:50.495Z,22.50
2017-12-11T17:54:50.491Z,28.13
2017-12-11T17:55:50.471Z,28.13
2017-12-11T17:56:50.468Z,28.13
2017-12-11T17:57:50.463Z,28.13
2017-12-11T17:58:50.473Z,33.75
2017-12-11T17:59:50.462Z,33.75
2017-12-11T18:00:50.457Z,33.75
2017-12-11T18:01:50.447Z,33.75
2017-12-11T18:02:50.442Z,33.75
2017-12-11T18:03:50.439Z,33.75
2017-12-11T18:04:50.434Z,33.75
2017-12-11T18:05:50.429Z,33.75
2017-12-11T18:06:50.425Z,28.13
2017-12-11T18:07:50.444Z,28.13
2017-12-11T18:08:50.420Z,22.50
2017-12-11T18:09:50.412Z,16.88
2017-12-11T18:10:50.428Z,16.88
2017-12-11T18:11:50.405Z,16.88
2017-12-11T18:12:50.416Z,22.50
2017-12-11T18:13:50.395Z,28.13
2017-12-11T18:14:50.408Z,28.13
2017-12-11T18:15:50.403Z,22.50
2017-12-11T18:16:50.390Z,28.13
2017-12-11T18:17:50.395Z,28.13
2017-12-11T18:18:50.394Z,33.75
2017-12-11T18:19:50.386Z,33.75
2017-12-11T18:20:50.382Z,22.50
2017-12-11T18:21:50.378Z,22.50
2017-12-11T18:22:50.358Z,22.50
2017-12-11T18:23:50.354Z,16.88
2017-12-11T18:24:50.369Z,16.88
2017-12-11T18:25:50.361Z,11.25
2017-12-11T18:26:50.363Z,16.88
2017-12-11T18:27:50.352Z,16.88
2017-12-11T18:28:50.350Z,28.13
2017-12-11T18:29:50.343Z,33.75
2017-12-11T18:30:50.341Z,33.75
2017-12-11T18:31:50.339Z,28.13
2017-12-11T18:32:50.332Z,28.13
2017-12-11T18:33:50.330Z,33.75
2017-12-11T18:34:50.326Z,33.75
2017-12-11T18:35:50.320Z,33.75
2017-12-11T18:36:50.317Z,33.75
2017-12-11T18:37:50.309Z,33.75
2017-12-11T18:38:50.311Z,33.75
2017-12-11T18:39:50.302Z,33.75
2017-12-11T18:40:50.297Z,33.75
2017-12-11T18:41:50.299Z,33.75
2017-12-11T18:42:50.294Z,33.75
2017-12-11T18:43:50.290Z,33.75
2017-12-11T18:44:50.284Z,28.13
2017-12-11T18:45:50.278Z,28.13
2017-12-11T18:46:50.271Z,33.75
2017-12-11T18:47:50.270Z,33.75
2017-12-11T18:48:50.266Z,33.75
2017-12-11T18:49:50.262Z,39.38
2017-12-11T18:50:50.259Z,39.38
2017-12-11T18:51:50.256Z,22.50
2017-12-11T18:52:50.248Z,16.88
2017-12-11T18:53:50.249Z,16.88
2017-12-11T18:54:50.244Z,16.88
2017-12-11T18:55:50.244Z,22.50
2017-12-11T18:56:50.234Z,22.50
2017-12-11T18:57:50.231Z,28.13
2017-12-11T18:58:50.232Z,28.13
2017-12-11T18:59:50.225Z,22.50
2017-12-11T19:00:50.218Z,22.50
2017-12-11T19:01:50.198Z,33.75
2017-12-11T19:02:50.196Z,22.50
2017-12-11T19:03:50.191Z,22.50
2017-12-11T19:04:50.191Z,16.88
2017-12-11T19:05:50.198Z,16.88
2017-12-11T19:06:50.190Z,16.88
2017-12-11T19:07:50.179Z,16.88
2017-12-11T19:08:50.173Z,22.50
2017-12-11T19:09:50.169Z,22.50
2017-12-11T19:10:50.165Z,22.50
2017-12-11T19:11:50.164Z,22.50
2017-12-11T19:12:50.158Z,22.50
2017-12-11T19:13:50.157Z,22.50
2017-12-11T19:14:50.149Z,16.88
2017-12-11T19:15:50.151Z,16.88
2017-12-11T19:16:50.143Z,16.88
2017-12-11T19:17:50.139Z,16.88
2017-12-11T19:18:50.135Z,28.13
2017-12-11T19:19:50.136Z,28.13
2017-12-11T19:20:50.132Z,22.50
2017-12-11T19:21:50.123Z,22.50
2017-12-11T19:22:50.119Z,16.88
2017-12-11T19:23:50.115Z,11.25
2017-12-11T19:24:50.117Z,11.25
2017-12-11T19:25:50.109Z,16.88
2017-12-11T19:26:50.110Z,16.88
2017-12-11T19:27:50.103Z,16.88
2017-12-11T19:28:50.096Z,16.88
2017-12-11T19:29:50.092Z,22.50
2017-12-11T19:30:50.091Z,22.50
2017-12-11T19:31:50.088Z,16.88
2017-12-11T19:32:50.081Z,28.13
2017-12-11T19:33:50.079Z,39.38
2017-12-11T19:34:50.073Z,45.00
2017-12-11T19:35:50.070Z,39.38
2017-12-11T19:36:50.095Z,33.75
2017-12-11T19:37:50.065Z,33.75
2017-12-11T19:38:50.059Z,33.75
2017-12-11T19:39:50.053Z,28.13
2017-12-11T19:40:50.051Z,16.88
2017-12-11T19:41:50.046Z,16.88
2017-12-11T19:42:50.041Z,16.88
2017-12-11T19:43:50.042Z,28.13
2017-12-11T19:44:50.038Z,28.13
2017-12-11T19:45:50.030Z,28.13
2017-12-11T19:46:50.029Z,28.13
2017-12-11T19:47:50.026Z,28.13
2017-12-11T19:48:50.020Z,28.13
2017-12-11T19:49:50.014Z,28.13
2017-12-11T19:50:50.014Z,22.50
2017-12-11T19:51:50.011Z,22.50
2017-12-11T19:52:50.005Z,22.50
2017-12-11T19:53:50.003Z,22.50
2017-12-11T19:54:49.995Z,22.50
2017-12-11T19:55:49.994Z,16.88
2017-12-11T19:56:49.987Z,16.88
2017-12-11T19:57:49.988Z,16.88
2017-12-11T19:58:49.979Z,16.88
2017-12-11T19:59:49.976Z,16.88
2017-12-11T20:00:49.977Z,16.88
2017-12-11T20:01:49.968Z,16.88
2017-12-11T20:02:49.963Z,16.88
2017-12-11T20:03:49.960Z,16.88
2017-12-11T20:04:49.956Z,22.50
2017-12-11T20:05:49.952Z,22.50
2017-12-11T20:06:49.952Z,22.50
2017-12-11T20:07:49.944Z,22.50
2017-12-11T20:08:49.940Z,22.50
2017-12-11T20:09:49.935Z,22.50
2017-12-11T20:10:49.932Z,22.50
2017-12-11T20:11:49.928Z,22.50
2017-12-11T20:12:49.923Z,16.88
2017-12-11T20:13:49.918Z,11.25
2017-12-11T20:14:49.919Z,5.63
2017-12-11T20:15:49.914Z,11.25
2017-12-11T20:16:49.907Z,11.25
2017-12-11T20:17:49.902Z,5.63
2017-12-11T20:18:49.898Z,5.63
2017-12-11T20:19:49.894Z,5.63
2017-12-11T20:20:49.895Z,5.63
2017-12-11T20:21:49.885Z,0.00
2017-12-11T20:22:49.883Z,0.00
2017-12-11T20:23:49.878Z,5.63
2017-12-11T20:24:49.878Z,0.00
2017-12-11T20:25:49.875Z,5.63
2017-12-11T20:26:49.865Z,5.63
2017-12-11T20:27:49.861Z,5.63
2017-12-11T20:28:49.857Z,5.63
2017-12-11T20:29:49.852Z,5.63
2017-12-11T20:30:49.881Z,5.63
2017-12-11T20:31:49.844Z,5.63
2017-12-11T20:32:49.840Z,5.63
2017-12-11T20:33:49.836Z,5.63
2017-12-11T20:34:49.832Z,5.63
2017-12-11T20:35:49.827Z,0.00
2017-12-11T20:36:49.827Z,5.63
2017-12-11T20:37:49.818Z,5.63
2017-12-11T20:38:49.817Z,5.63
2017-12-11T20:39:49.811Z,5.63
2017-12-11T20:40:49.806Z,5.63
2017-12-11T20:41:49.800Z,11.25
2017-12-11T20:42:49.796Z,11.25
2017-12-11T20:43:49.792Z,11.25
2017-12-11T20:44:49.789Z,5.63
2017-12-11T20:45:49.782Z,5.63
2017-12-11T20:46:49.778Z,5.63
2017-12-11T20:47:49.773Z,5.63
2017-12-11T20:48:49.785Z,5.63
2017-12-11T20:49:49.763Z,5.63
2017-12-11T20:50:49.759Z,5.63
2017-12-11T20:51:49.770Z,11.25
2017-12-11T20:52:49.767Z,11.25
2017-12-11T20:53:49.762Z,5.63
2017-12-11T20:54:49.757Z,5.63
2017-12-11T20:55:49.777Z,5.63
2017-12-11T20:56:49.732Z,5.63
2017-12-11T20:57:49.731Z,5.63
2017-12-11T20:58:49.722Z,0.00
2017-12-11T20:59:49.717Z,0.00
2017-12-11T21:00:49.729Z,0.00
2017-12-11T21:01:49.723Z,5.63
2017-12-11T21:02:49.719Z,5.63
2017-12-11T21:03:49.717Z,5.63
2017-12-11T21:04:49.710Z,5.63
2017-12-11T21:05:49.704Z,5.63
2017-12-11T21:06:49.698Z,5.63
2017-12-11T21:07:49.681Z,0.00
2017-12-11T21:08:49.674Z,0.00
2017-12-11T21:09:49.668Z,0.00
2017-12-11T21:10:49.664Z,5.63
2017-12-11T21:11:49.675Z,0.00
2017-12-11T21:12:49.655Z,0.00
2017-12-11T21:13:49.664Z,0.00
2017-12-11T21:14:49.645Z,0.00
2017-12-11T21:15:49.656Z,0.00
2017-12-11T21:16:49.651Z,0.00
2017-12-11T21:17:49.645Z,0.00
2017-12-11T21:18:49.629Z,0.00
2017-12-11T21:19:49.637Z,0.00
2017-12-11T21:20:49.616Z,0.00
2017-12-11T21:21:49.614Z,0.00
2017-12-11T21:22:49.623Z,0.00
2017-12-11T21:23:49.619Z,0.00
2017-12-11T21:24:49.623Z,0.00
2017-12-11T21:25:49.590Z,0.00
2017-12-11T21:26:49.604Z,0.00
2017-12-11T21:27:49.580Z,0.00
2017-12-11T21:28:49.594Z,0.00
2017-12-11T21:29:49.570Z,0.00
2017-12-11T21:30:49.584Z,0.00
2017-12-11T21:31:49.565Z,0.00
2017-12-11T21:32:49.556Z,0.00
2017-12-11T21:33:49.572Z,0.00
2017-12-11T21:34:49.550Z,0.00
2017-12-11T21:35:49.541Z,0.00
2017-12-11T21:36:49.553Z,0.00
2017-12-11T21:37:49.592Z,0.00
2017-12-11T21:38:49.525Z,0.00
2017-12-11T21:39:49.520Z,0.00
2017-12-11T21:40:49.537Z,0.00
2017-12-11T21:41:49.509Z,0.00
2017-12-11T21:42:49.523Z,0.00
2017-12-11T21:43:49.500Z,0.00
2017-12-11T21:44:49.495Z,0.00
2017-12-11T21:45:49.490Z,0.00
2017-12-11T21:46:49.503Z,0.00
2017-12-11T21:47:49.498Z,0.00
2017-12-11T21:48:49.493Z,0.00
2017-12-11T21:49:49.478Z,0.00
2017-12-11T21:50:49.485Z,0.00
2017-12-11T21:51:49.459Z,0.00
2017-12-11T21:52:49.453Z,0.00
2017-12-11T21:53:49.471Z,0.00
2017-12-11T21:54:49.461Z,0.00
2017-12-11T21:55:49.457Z,0.00
2017-12-11T21:56:49.433Z,0.00
2017-12-11T21:57:49.445Z,0.00
2017-12-11T21:58:49.422Z,0.00
2017-12-11T21:59:49.423Z,0.00
2017-12-11T22:00:49.431Z,0.00
2017-12-11T22:01:49.425Z,0.00
2017-12-11T22:02:49.406Z,0.00
2017-12-11T22:03:49.415Z,0.00
2017-12-11T22:04:49.410Z,0.00
2017-12-11T22:05:49.404Z,0.00
2017-12-11T22:06:49.399Z,0.00
2017-12-11T22:07:49.377Z,0.00
2017-12-11T22:08:49.389Z,0.00
2017-12-11T22:09:49.386Z,0.00
2017-12-11T22:10:49.381Z,0.00
2017-12-11T22:11:49.373Z,0.00
2017-12-11T22:12:49.353Z,0.00
2017-12-11T22:13:49.344Z,0.00
2017-12-11T22:14:49.357Z,0.00
2017-12-11T22:15:49.352Z,0.00
2017-12-11T22:16:49.332Z,0.00
2017-12-11T22:17:49.322Z,0.00
2017-12-11T22:18:49.317Z,0.00
2017-12-11T22:19:49.334Z,0.00
2017-12-11T22:20:49.326Z,0.00
2017-12-11T22:21:49.323Z,0.00
2017-12-11T22:22:49.315Z,0.00
2017-12-11T22:23:49.310Z,0.00
2017-12-11T22:24:49.287Z,0.00
2017-12-11T22:25:49.280Z,0.00
2017-12-11T22:26:49.275Z,0.00
2017-12-11T22:27:49.289Z,0.00
2017-12-11T22:28:49.265Z,0.00
2017-12-11T22:29:49.263Z,0.00
2017-12-11T22:30:49.253Z,0.00
2017-12-11T22:31:49.268Z,0.00
2017-12-11T22:32:49.266Z,0.00
2017-12-11T22:33:49.256Z,0.00
2017-12-11T22:34:49.251Z,0.00
2017-12-11T22:35:49.246Z,0.00
2017-12-11T22:36:49.241Z,0.00
2017-12-11T22:37:49.238Z,0.00
2017-12-11T22:38:49.233Z,0.00
2017-12-11T22:39:49.225Z,0.00
2017-12-11T22:40:49.220Z,0.00
2017-12-11T22:41:49.215Z,0.00
2017-12-11T22:42:49.208Z,0.00
2017-12-11T22:43:49.203Z,0.00
2017-12-11T22:44:49.198Z,0.00
2017-12-11T22:45:49.192Z,0.00
2017-12-11T22:46:49.188Z,0.00
2017-12-11T22:47:49.182Z,0.00
2017-12-11T22:48:49.177Z,0.00
2017-12-11T22:49:49.171Z,0.00
2017-12-11T22:50:49.166Z,0.00
2017-12-11T22:51:49.161Z,0.00
2017-12-11T22:52:49.155Z,0.00
2017-12-11T22:53:49.149Z,0.00
2017-12-11T22:54:49.144Z,0.00
2017-12-11T22:55:49.176Z,0.00
2017-12-11T22:56:49.134Z,0.00
2017-12-11T22:57:49.127Z,0.00
2017-12-11T22:58:49.126Z,0.00
2017-12-11T22:59:49.122Z,0.00
2017-12-11T23:00:49.112Z,0.00
2017-12-11T23:01:49.106Z,0.00
2017-12-11T23:02:49.103Z,0.00
2017-12-11T23:03:49.095Z,0.00
2017-12-11T23:04:49.089Z,0.00
2017-12-11T23:05:49.084Z,0.00
2017-12-11T23:06:49.077Z,0.00
2017-12-11T23:07:49.072Z,0.00
2017-12-11T23:08:49.066Z,0.00
2017-12-11T23:09:49.060Z,0.00
2017-12-11T23:10:49.068Z,0.00
2017-12-11T23:11:49.052Z,0.00
2017-12-11T23:12:49.046Z,0.00
2017-12-11T23:13:49.036Z,0.00
2017-12-11T23:14:49.034Z,0.00
2017-12-11T23:15:49.028Z,0.00
2017-12-11T23:16:49.018Z,0.00
2017-12-11T23:17:49.015Z,0.00
2017-12-11T23:18:49.011Z,0.00
2017-12-11T23:19:49.004Z,0.00
2017-12-11T23:20:48.998Z,0.00
2017-12-11T23:21:48.991Z,0.00
2017-12-11T23:22:48.982Z,0.00
2017-12-11T23:23:48.979Z,0.00
2017-12-11T23:24:48.973Z,0.00
2017-12-11T23:25:48.966Z,0.00
2017-12-11T23:26:48.958Z,0.00
2017-12-11T23:27:48.955Z,0.00
2017-12-11T23:28:48.945Z,0.00
2017-12-11T23:29:48.942Z,0.00